Time;durP1;ratioP1;P1;durP2;ratioP2;P2;SDS_P1;SDS_P2;PMS_P1;PMS_P2;Temp;Humidity;BMP_temperature;BMP_pressure;BME280_temperature;BME280_humidity;BME280_pressure;Samples;Min_cycle;Max_cycle;Signal;HPM_P1;HPM_P2
2023/12/25 00:01:04;;;;;;;1.37;0.60;;;10.40;99.90;;;;;;5030189;28;20220;-50
2023/12/25 00:03:31;;;;;;;0.73;0.60;;;10.50;99.90;;;;;;5030634;28;20184;-53
2023/12/25 00:05:56;;;;;;;1.90;0.50;;;10.50;99.90;;;;;;5031222;28;20182;-53
2023/12/25 00:08:22;;;;;;;1.27;0.70;;;10.40;99.90;;;;;;5031178;28;20270;-53
2023/12/25 00:10:47;;;;;;;1.03;0.50;;;10.50;99.90;;;;;;5030341;28;20203;-51
2023/12/25 00:13:13;;;;;;;0.70;0.47;;;10.50;99.90;;;;;;5031225;28;20250;-51
2023/12/25 00:15:39;;;;;;;0.83;0.50;;;10.40;99.90;;;;;;5030863;28;20202;-49
2023/12/25 00:18:04;;;;;;;1.17;0.50;;;10.40;99.90;;;;;;5030987;28;20187;-51
2023/12/25 00:20:30;;;;;;;1.90;0.50;;;10.30;99.90;;;;;;5030400;28;20211;-54
2023/12/25 00:22:56;;;;;;;2.10;0.60;;;10.30;99.90;;;;;;5021982;28;20207;-48
2023/12/25 00:25:21;;;;;;;1.10;0.50;;;10.30;99.90;;;;;;5029421;28;20499;-48
2023/12/25 00:27:47;;;;;;;0.70;0.60;;;10.30;99.90;;;;;;5030826;28;20560;-51
2023/12/25 00:30:12;;;;;;;0.90;0.70;;;10.20;99.90;;;;;;5030596;28;20199;-52
2023/12/25 00:32:38;;;;;;;3.23;0.60;;;10.30;99.90;;;;;;5029993;28;20556;-53
2023/12/25 00:35:04;;;;;;;1.40;0.60;;;10.30;99.90;;;;;;5030673;28;20215;-50
2023/12/25 00:37:30;;;;;;;1.00;0.60;;;10.20;99.90;;;;;;5030532;28;20191;-51
2023/12/25 00:39:56;;;;;;;1.23;0.57;;;10.20;99.90;;;;;;5030057;28;20199;-52
2023/12/25 00:42:21;;;;;;;2.20;0.53;;;10.20;99.90;;;;;;5030398;28;20203;-54
2023/12/25 00:44:47;;;;;;;1.93;0.70;;;10.20;99.90;;;;;;5030432;28;20180;-53
2023/12/25 00:47:12;;;;;;;2.30;0.50;;;10.20;99.90;;;;;;5030597;28;20191;-53
2023/12/25 00:49:38;;;;;;;0.30;0.30;;;10.20;99.90;;;;;;5037793;28;20175;-50
2023/12/25 00:52:04;;;;;;;0.80;0.60;;;10.30;99.90;;;;;;5030486;28;20211;-50
2023/12/25 00:54:31;;;;;;;3.20;0.60;;;10.20;99.90;;;;;;5030340;28;20215;-57
2023/12/25 00:56:57;;;;;;;0.70;0.50;;;10.20;99.90;;;;;;5022589;28;20196;-53
2023/12/25 00:59:23;;;;;;;2.03;0.60;;;10.10;99.90;;;;;;5029574;28;20188;-55
2023/12/25 01:01:49;;;;;;;1.17;0.50;;;10.20;99.90;;;;;;5029602;28;20223;-49
2023/12/25 01:04:14;;;;;;;2.20;0.50;;;10.20;99.90;;;;;;5030371;28;20267;-49
2023/12/25 01:06:40;;;;;;;0.50;0.40;;;10.20;99.90;;;;;;5030135;28;20262;-51
2023/12/25 01:09:05;;;;;;;0.73;0.40;;;10.20;99.90;;;;;;5029604;28;20191;-51
2023/12/25 01:11:31;;;;;;;1.37;0.53;;;10.20;99.90;;;;;;5029763;28;20262;-53
2023/12/25 01:13:57;;;;;;;2.87;0.50;;;10.30;99.90;;;;;;5029925;28;20190;-49
2023/12/25 01:16:23;;;;;;;2.67;0.60;;;10.30;99.90;;;;;;5030273;28;20198;-54
2023/12/25 01:18:49;;;;;;;0.50;0.40;;;10.30;99.90;;;;;;5029469;28;20215;-54
2023/12/25 01:21:15;;;;;;;1.13;0.60;;;10.30;99.90;;;;;;5030005;28;20208;-53
2023/12/25 01:23:41;;;;;;;0.50;0.40;;;10.30;99.90;;;;;;5030017;28;20190;-50
2023/12/25 01:26:07;;;;;;;2.10;0.50;;;10.30;99.90;;;;;;5030008;28;20191;-55
2023/12/25 01:28:32;;;;;;;0.47;0.37;;;10.30;99.90;;;;;;5029815;28;20184;-49
2023/12/25 01:30:58;;;;;;;1.17;0.60;;;10.30;99.90;;;;;;5029607;28;20207;-52
2023/12/25 01:33:23;;;;;;;0.50;0.40;;;10.20;99.90;;;;;;5029114;28;20634;-54
2023/12/25 01:35:49;;;;;;;0.90;0.70;;;10.30;99.90;;;;;;5029845;28;20196;-50
2023/12/25 01:38:14;;;;;;;2.43;0.40;;;10.20;99.90;;;;;;5030036;28;20274;-50
2023/12/25 01:40:44;;;;;;;1.90;0.43;;;10.20;99.90;;;;;;5029217;28;20613;-50
2023/12/25 01:43:09;;;;;;;0.97;0.50;;;10.20;99.90;;;;;;5029895;28;20220;-51
2023/12/25 01:45:35;;;;;;;2.00;0.40;;;10.20;99.90;;;;;;5029741;28;20202;-49
2023/12/25 01:48:01;;;;;;;0.80;0.40;;;10.20;99.90;;;;;;5029989;28;20249;-51
2023/12/25 01:50:28;;;;;;;1.07;0.40;;;10.20;99.90;;;;;;5029328;28;20204;-49
2023/12/25 01:52:54;;;;;;;0.87;0.50;;;10.10;99.90;;;;;;5029647;28;20600;-51
2023/12/25 01:55:19;;;;;;;2.73;0.60;;;10.20;99.90;;;;;;5029979;28;20195;-50
2023/12/25 01:57:45;;;;;;;2.00;1.07;;;10.20;99.90;;;;;;5029629;28;20191;-53
2023/12/25 02:00:11;;;;;;;1.43;0.50;;;10.10;99.90;;;;;;5029064;28;20281;-51
2023/12/25 02:02:37;;;;;;;0.63;0.50;;;10.10;99.90;;;;;;5029805;28;20212;-51
2023/12/25 02:05:03;;;;;;;0.60;0.40;;;10.10;99.90;;;;;;5030040;28;20184;-52
2023/12/25 02:07:29;;;;;;;0.93;0.57;;;10.10;99.90;;;;;;5030037;28;20276;-51
2023/12/25 02:09:55;;;;;;;0.70;0.47;;;10.10;99.90;;;;;;5028701;28;20242;-52
2023/12/25 02:12:20;;;;;;;3.43;0.60;;;10.10;99.90;;;;;;5029750;28;20192;-52
2023/12/25 02:14:46;;;;;;;1.30;0.50;;;10.10;99.90;;;;;;5029595;28;20172;-50
2023/12/25 02:17:12;;;;;;;1.00;0.30;;;10.10;99.90;;;;;;5029669;28;20267;-49
2023/12/25 02:19:40;;;;;;;0.60;0.30;;;10.00;99.90;;;;;;5028888;28;20267;-50
2023/12/25 02:22:09;;;;;;;0.57;0.47;;;10.10;99.90;;;;;;5029881;28;20234;-50
2023/12/25 02:24:37;;;;;;;1.23;0.40;;;10.10;99.90;;;;;;5029623;28;20665;-50
2023/12/25 02:27:03;;;;;;;0.40;0.33;;;10.10;99.90;;;;;;5052464;28;20187;-52
2023/12/25 02:29:29;;;;;;;2.20;0.60;;;10.00;99.90;;;;;;5028723;28;20192;-50
2023/12/25 02:31:55;;;;;;;0.63;0.43;;;9.90;99.90;;;;;;5032946;28;20207;-52
2023/12/25 02:34:20;;;;;;;0.60;0.40;;;9.90;99.90;;;;;;5032118;28;20190;-50
2023/12/25 02:36:46;;;;;;;0.50;0.40;;;10.00;99.90;;;;;;5031524;28;20186;-51
2023/12/25 02:39:11;;;;;;;0.77;0.60;;;10.00;99.90;;;;;;5032366;28;20184;-52
2023/12/25 02:41:37;;;;;;;0.60;0.40;;;10.00;99.90;;;;;;5056160;28;20212;-55
2023/12/25 02:44:03;;;;;;;3.27;0.40;;;10.00;99.90;;;;;;5032820;28;20188;-51
2023/12/25 02:46:29;;;;;;;0.87;0.50;;;10.00;99.90;;;;;;5032835;28;20659;-53
2023/12/25 02:48:54;;;;;;;1.57;0.30;;;10.00;99.90;;;;;;5031933;28;20187;-50
2023/12/25 02:51:20;;;;;;;1.37;0.40;;;10.00;99.90;;;;;;5032590;28;20691;-51
2023/12/25 02:53:45;;;;;;;0.73;0.43;;;10.00;99.90;;;;;;5032585;28;20655;-50
2023/12/25 02:56:11;;;;;;;0.70;0.30;;;10.00;99.90;;;;;;5032502;28;20559;-53
2023/12/25 02:58:36;;;;;;;1.03;0.50;;;10.00;99.90;;;;;;5032142;28;20679;-51
2023/12/25 03:01:02;;;;;;;0.53;0.40;;;10.00;99.90;;;;;;5031844;28;20227;-54
2023/12/25 03:03:27;;;;;;;0.67;0.40;;;10.00;99.90;;;;;;5032636;28;20286;-52
2023/12/25 03:05:53;;;;;;;0.40;0.40;;;10.00;99.90;;;;;;5032336;28;20235;-53
2023/12/25 03:08:19;;;;;;;0.50;0.40;;;10.10;99.90;;;;;;5032364;28;20211;-52
2023/12/25 03:10:44;;;;;;;0.40;0.30;;;10.00;99.90;;;;;;5031316;28;20253;-50
2023/12/25 03:13:10;;;;;;;0.50;0.40;;;10.10;99.90;;;;;;5031088;28;20191;-53
2023/12/25 03:15:35;;;;;;;2.97;0.40;;;10.10;99.90;;;;;;5032087;28;20227;-54
2023/12/25 03:18:01;;;;;;;0.30;0.30;;;10.10;99.90;;;;;;5032197;28;20188;-52
2023/12/25 03:20:27;;;;;;;0.70;0.40;;;10.10;99.90;;;;;;5031523;28;20713;-50
2023/12/25 03:22:52;;;;;;;2.20;0.40;;;10.10;99.90;;;;;;5031825;28;20679;-54
2023/12/25 03:25:18;;;;;;;0.93;0.50;;;10.20;99.90;;;;;;5032024;28;20184;-54
2023/12/25 03:27:43;;;;;;;0.20;0.20;;;10.20;99.90;;;;;;5031738;28;20182;-55
2023/12/25 03:30:09;;;;;;;0.50;0.40;;;10.20;99.90;;;;;;5031097;28;20555;-50
2023/12/25 03:32:35;;;;;;;2.03;0.20;;;10.10;99.90;;;;;;5040028;28;20192;-48
2023/12/25 03:35:00;;;;;;;1.07;0.30;;;10.10;99.90;;;;;;5031092;28;20188;-49
2023/12/25 03:37:26;;;;;;;2.00;0.30;;;10.10;99.90;;;;;;5031719;28;20663;-50
2023/12/25 03:39:52;;;;;;;0.40;0.33;;;10.20;99.90;;;;;;5030936;28;20270;-54
2023/12/25 03:42:18;;;;;;;1.07;0.30;;;10.20;99.90;;;;;;5031650;28;20211;-54
2023/12/25 03:44:43;;;;;;;1.00;0.30;;;10.10;99.90;;;;;;5031523;28;20211;-51
2023/12/25 03:47:10;;;;;;;1.07;0.40;;;10.20;99.90;;;;;;5031619;28;20223;-49
2023/12/25 03:49:36;;;;;;;0.30;0.30;;;10.10;99.90;;;;;;5030878;28;20246;-50
2023/12/25 03:52:02;;;;;;;1.33;0.30;;;10.10;99.90;;;;;;5031566;28;21083;-49
2023/12/25 03:54:28;;;;;;;0.30;0.30;;;10.20;99.90;;;;;;5031021;28;20199;-54
2023/12/25 03:56:53;;;;;;;2.93;0.33;;;10.20;99.90;;;;;;5031178;28;20192;-52
2023/12/25 03:59:19;;;;;;;0.47;0.30;;;10.20;99.90;;;;;;5031104;28;20249;-53
2023/12/25 04:01:45;;;;;;;1.30;0.37;;;10.10;99.90;;;;;;5031013;28;20247;-55
2023/12/25 04:04:10;;;;;;;2.10;0.40;;;10.10;99.90;;;;;;5031377;28;20258;-57
2023/12/25 04:06:36;;;;;;;0.60;0.20;;;10.20;99.90;;;;;;5031214;28;20251;-52
2023/12/25 04:09:03;;;;;;;1.40;0.33;;;10.20;99.90;;;;;;5030667;28;20196;-57
2023/12/25 04:11:30;;;;;;;1.90;0.47;;;10.20;99.90;;;;;;5031084;28;20269;-57
2023/12/25 04:13:55;;;;;;;0.90;0.27;;;10.20;99.90;;;;;;5022885;28;20207;-53
2023/12/25 04:16:25;;;;;;;0.63;0.40;;;10.20;99.90;;;;;;5031238;28;20647;-52
2023/12/25 04:18:55;;;;;;;0.70;0.27;;;10.20;99.90;;;;;;5027919;28;20184;-51
2023/12/25 04:21:28;;;;;;;0.97;0.30;;;10.30;99.90;;;;;;5026083;28;20214;-53
2023/12/25 04:23:55;;;;;;;0.33;0.30;;;10.30;99.90;;;;;;5031263;28;20520;-54
2023/12/25 04:26:22;;;;;;;0.87;0.30;;;10.30;99.90;;;;;;5030759;28;20184;-57
2023/12/25 04:28:49;;;;;;;0.40;0.23;;;10.30;99.90;;;;;;5030049;28;20192;-55
2023/12/25 04:31:15;;;;;;;0.20;0.20;;;10.40;99.90;;;;;;5030750;28;20214;-56
2023/12/25 04:33:40;;;;;;;0.20;0.20;;;10.30;99.90;;;;;;5030614;28;20180;-56
2023/12/25 04:36:06;;;;;;;0.70;0.20;;;10.30;99.90;;;;;;5030860;28;20283;-52
2023/12/25 04:38:32;;;;;;;1.10;0.20;;;10.40;99.90;;;;;;5030591;28;20187;-55
2023/12/25 04:40:59;;;;;;;0.70;0.30;;;10.40;99.90;;;;;;5030218;28;20207;-56
2023/12/25 04:43:25;;;;;;;1.33;0.20;;;10.40;99.90;;;;;;5030748;28;20207;-56
2023/12/25 04:45:50;;;;;;;0.33;0.20;;;10.40;99.90;;;;;;5030802;28;20195;-52
2023/12/25 04:48:16;;;;;;;1.50;0.50;;;10.50;99.90;;;;;;5030153;28;20183;-52
2023/12/25 04:50:43;;;;;;;0.43;0.30;;;10.50;99.90;;;;;;5029629;28;20298;-55
2023/12/25 04:53:09;;;;;;;1.37;0.40;;;10.50;99.90;;;;;;5030598;28;20655;-56
2023/12/25 04:55:35;;;;;;;0.40;0.30;;;10.50;99.90;;;;;;5022323;28;20196;-56
2023/12/25 04:58:00;;;;;;;4.70;2.00;;;10.50;99.90;;;;;;5030265;28;20651;-56
2023/12/25 05:00:26;;;;;;;0.50;0.40;;;10.50;99.90;;;;;;5029679;28;20709;-54
2023/12/25 05:02:51;;;;;;;0.30;0.20;;;10.50;99.90;;;;;;5030246;28;20334;-54
2023/12/25 05:05:17;;;;;;;0.20;0.20;;;10.50;99.90;;;;;;5030502;28;20246;-51
2023/12/25 05:07:42;;;;;;;0.20;0.20;;;10.50;99.90;;;;;;5030068;28;20262;-53
2023/12/25 05:10:08;;;;;;;0.50;0.20;;;10.50;99.90;;;;;;5029968;28;20207;-52
2023/12/25 05:12:34;;;;;;;0.53;0.30;;;10.60;99.90;;;;;;5030236;28;20585;-55
2023/12/25 05:14:59;;;;;;;0.40;0.30;;;10.60;99.90;;;;;;5030542;28;20321;-56
2023/12/25 05:17:25;;;;;;;0.70;0.20;;;10.60;99.90;;;;;;5030612;28;20826;-55
2023/12/25 05:19:51;;;;;;;0.87;0.20;;;10.60;99.90;;;;;;5029519;28;20277;-54
2023/12/25 05:22:16;;;;;;;0.10;0.10;;;10.60;99.90;;;;;;5030280;28;20522;-52
2023/12/25 05:24:42;;;;;;;0.20;0.20;;;10.60;99.90;;;;;;5030196;28;20195;-56
2023/12/25 05:27:08;;;;;;;0.33;0.20;;;10.60;99.90;;;;;;5028734;28;20183;-54
2023/12/25 05:29:33;;;;;;;0.20;0.20;;;10.60;99.90;;;;;;5029417;28;20181;-54
2023/12/25 05:31:59;;;;;;;0.47;0.20;;;10.60;99.90;;;;;;5028722;28;20203;-56
2023/12/25 05:34:26;;;;;;;0.77;0.30;;;10.50;99.90;;;;;;5029986;28;20184;-53
2023/12/25 05:36:52;;;;;;;0.30;0.20;;;10.50;99.90;;;;;;5030131;28;20663;-55
2023/12/25 05:39:18;;;;;;;0.67;0.20;;;10.60;99.90;;;;;;5029569;28;20263;-56
2023/12/25 05:41:43;;;;;;;0.53;0.30;;;10.50;99.90;;;;;;5029551;28;20239;-51
2023/12/25 05:44:09;;;;;;;0.23;0.20;;;10.60;99.90;;;;;;5030111;28;20196;-55
2023/12/25 05:46:36;;;;;;;1.83;0.47;;;10.50;99.90;;;;;;5029997;28;20192;-51
2023/12/25 05:49:02;;;;;;;0.90;0.43;;;10.50;99.90;;;;;;5029542;28;20192;-55
2023/12/25 05:51:27;;;;;;;2.17;0.90;;;10.50;99.90;;;;;;5028777;28;20288;-55
2023/12/25 05:53:53;;;;;;;0.93;0.50;;;10.50;99.90;;;;;;5028456;28;20188;-55
2023/12/25 05:56:19;;;;;;;1.43;0.50;;;10.40;99.90;;;;;;5029936;28;20199;-57
2023/12/25 05:58:44;;;;;;;1.73;0.60;;;10.40;99.90;;;;;;5027578;28;20238;-55
2023/12/25 06:01:12;;;;;;;4.10;1.50;;;10.40;99.90;;;;;;5025289;28;20620;-57
2023/12/25 06:03:39;;;;;;;1.00;0.30;;;10.50;99.90;;;;;;5033440;28;20749;-56
2023/12/25 06:06:05;;;;;;;0.10;0.10;;;10.50;99.90;;;;;;5033767;28;20188;-53
2023/12/25 06:08:30;;;;;;;1.90;0.20;;;10.50;99.90;;;;;;5033612;28;20550;-52
2023/12/25 06:10:57;;;;;;;2.57;0.30;;;10.50;99.90;;;;;;5032635;28;20203;-56
2023/12/25 06:13:23;;;;;;;0.40;0.20;;;10.50;99.90;;;;;;5033332;28;20265;-55
2023/12/25 06:15:48;;;;;;;0.27;0.27;;;10.50;99.90;;;;;;5033282;28;20219;-56
2023/12/25 06:18:14;;;;;;;0.13;0.13;;;10.40;99.90;;;;;;5033344;28;20184;-57
2023/12/25 06:20:40;;;;;;;0.40;0.30;;;10.40;99.90;;;;;;5032897;28;20218;-55
2023/12/25 06:23:06;;;;;;;1.23;0.30;;;10.40;99.90;;;;;;5033355;28;20273;-56
2023/12/25 06:25:31;;;;;;;0.10;0.10;;;10.30;99.90;;;;;;5033187;28;20192;-55
2023/12/25 06:27:57;;;;;;;0.20;0.10;;;10.30;99.90;;;;;;5033230;28;20617;-54
2023/12/25 06:30:23;;;;;;;0.87;0.30;;;10.40;99.90;;;;;;5032456;28;20619;-57
2023/12/25 06:32:48;;;;;;;1.00;0.20;;;10.30;99.90;;;;;;5030895;28;20206;-54
2023/12/25 06:35:14;;;;;;;0.97;0.20;;;10.30;99.90;;;;;;5026948;28;20222;-55
2023/12/25 06:37:39;;;;;;;0.73;0.50;;;10.30;99.90;;;;;;5032924;28;20192;-55
2023/12/25 06:40:06;;;;;;;1.13;0.30;;;10.30;99.90;;;;;;5032615;28;20230;-56
2023/12/25 06:42:31;;;;;;;1.20;0.20;;;10.30;99.90;;;;;;5031591;28;20375;-57
2023/12/25 06:44:57;;;;;;;1.47;0.20;;;10.20;99.90;;;;;;5032976;28;20721;-56
2023/12/25 06:47:22;;;;;;;0.97;0.27;;;10.30;99.90;;;;;;5032853;28;20222;-56
2023/12/25 06:49:48;;;;;;;0.67;0.40;;;10.30;99.90;;;;;;5031721;28;20215;-53
2023/12/25 06:52:14;;;;;;;0.87;0.50;;;10.30;99.90;;;;;;5032707;28;20294;-56
2023/12/25 06:54:39;;;;;;;2.50;0.70;;;10.20;99.90;;;;;;5032649;28;20195;-55
2023/12/25 06:57:05;;;;;;;2.20;0.50;;;10.30;99.90;;;;;;5032660;28;20210;-55
2023/12/25 06:59:30;;;;;;;4.03;0.70;;;10.20;99.90;;;;;;5032096;28;20196;-56
2023/12/25 07:01:56;;;;;;;0.23;0.23;;;10.20;99.90;;;;;;5032449;28;20314;-53
2023/12/25 07:04:22;;;;;;;2.37;0.57;;;10.20;99.90;;;;;;5032866;28;20362;-55
2023/12/25 07:06:48;;;;;;;1.27;0.60;;;10.20;99.90;;;;;;5032457;28;20187;-57
2023/12/25 07:09:14;;;;;;;2.53;1.00;;;10.10;99.90;;;;;;5032046;28;20419;-53
2023/12/25 07:11:41;;;;;;;3.13;0.57;;;10.20;99.90;;;;;;5031798;28;20578;-51
2023/12/25 07:14:08;;;;;;;0.27;0.20;;;10.20;99.90;;;;;;5032726;28;20202;-55
2023/12/25 07:16:33;;;;;;;1.60;0.57;;;10.20;99.90;;;;;;5032612;28;20269;-55
2023/12/25 07:18:59;;;;;;;0.27;0.20;;;10.20;99.90;;;;;;5031853;28;20250;-53
2023/12/25 07:21:24;;;;;;;0.30;0.20;;;10.20;99.90;;;;;;5032674;28;20571;-54
2023/12/25 07:23:50;;;;;;;0.20;0.20;;;10.10;99.90;;;;;;5032958;28;20219;-55
2023/12/25 07:26:17;;;;;;;0.20;0.20;;;10.20;99.90;;;;;;5032428;28;20592;-55
2023/12/25 07:28:43;;;;;;;0.23;0.20;;;10.20;99.90;;;;;;5032078;28;20196;-56
2023/12/25 07:31:09;;;;;;;0.10;0.10;;;10.10;99.90;;;;;;5023636;28;20287;-53
2023/12/25 07:33:36;;;;;;;0.33;0.30;;;10.10;99.90;;;;;;5031787;28;20274;-54
2023/12/25 07:36:02;;;;;;;0.27;0.20;;;10.10;99.90;;;;;;5031433;28;20677;-55
2023/12/25 07:38:28;;;;;;;0.20;0.20;;;10.20;99.90;;;;;;5030441;28;20243;-55
2023/12/25 07:40:53;;;;;;;0.10;0.10;;;10.20;99.90;;;;;;5029977;28;20208;-55
2023/12/25 07:43:19;;;;;;;0.20;0.20;;;10.20;99.90;;;;;;5031601;28;20204;-53
2023/12/25 07:45:44;;;;;;;0.57;0.20;;;10.20;99.90;;;;;;5031822;28;20203;-56
2023/12/25 07:48:10;;;;;;;1.23;0.30;;;10.20;99.90;;;;;;5031761;28;20180;-55
2023/12/25 07:50:36;;;;;;;0.30;0.20;;;10.20;99.90;;;;;;5030505;28;20636;-52
2023/12/25 07:53:02;;;;;;;0.90;0.30;;;10.20;99.90;;;;;;5030543;28;20187;-55
2023/12/25 07:55:29;;;;;;;2.13;0.57;;;10.20;99.90;;;;;;5030654;28;20215;-52
2023/12/25 07:57:55;;;;;;;1.33;0.50;;;10.20;99.90;;;;;;5031168;28;20203;-51
2023/12/25 08:00:21;;;;;;;2.60;0.73;;;10.20;99.90;;;;;;5029794;28;20243;-55
2023/12/25 08:02:46;;;;;;;1.03;0.40;;;10.20;99.90;;;;;;5030601;28;20523;-53
2023/12/25 08:05:12;;;;;;;1.40;0.50;;;10.20;99.90;;;;;;5030832;28;20238;-54
2023/12/25 08:07:37;;;;;;;0.20;0.20;;;10.30;99.90;;;;;;5030291;28;20184;-53
2023/12/25 08:10:03;;;;;;;0.40;0.30;;;10.30;99.90;;;;;;5030004;28;20180;-54
2023/12/25 08:12:29;;;;;;;0.73;0.30;;;10.30;99.90;;;;;;5030792;28;20182;-56
2023/12/25 08:14:54;;;;;;;1.70;0.30;;;10.30;99.90;;;;;;5030346;28;20194;-55
2023/12/25 08:17:20;;;;;;;0.53;0.20;;;10.30;99.90;;;;;;5030652;28;20260;-51
2023/12/25 08:19:46;;;;;;;0.30;0.20;;;10.20;99.90;;;;;;5029362;28;20191;-55
2023/12/25 08:22:11;;;;;;;0.30;0.30;;;10.30;99.90;;;;;;5029991;28;20204;-55
2023/12/25 08:24:37;;;;;;;0.20;0.20;;;10.40;99.90;;;;;;5030028;28;20214;-55
2023/12/25 08:27:03;;;;;;;0.13;0.13;;;10.40;99.90;;;;;;5030449;28;20271;-54
2023/12/25 08:29:28;;;;;;;0.63;0.50;;;10.40;99.90;;;;;;5029843;28;20172;-55
2023/12/25 08:31:55;;;;;;;0.30;0.20;;;10.40;99.90;;;;;;5028100;28;20833;-55
2023/12/25 08:34:23;;;;;;;0.30;0.30;;;10.40;99.90;;;;;;5026988;28;20646;-51
2023/12/25 08:36:49;;;;;;;0.60;0.30;;;10.50;99.90;;;;;;5029525;28;20205;-52
2023/12/25 08:39:14;;;;;;;0.20;0.20;;;10.40;99.90;;;;;;5027423;28;20738;-51
2023/12/25 08:41:40;;;;;;;1.37;0.60;;;10.40;99.90;;;;;;5027112;28;20747;-51
2023/12/25 08:44:06;;;;;;;2.63;0.50;;;10.40;99.90;;;;;;5030025;28;20172;-54
2023/12/25 08:46:32;;;;;;;0.37;0.30;;;10.40;99.90;;;;;;5029448;28;20651;-52
2023/12/25 08:48:57;;;;;;;0.30;0.30;;;10.40;99.90;;;;;;5027693;28;20208;-53
2023/12/25 08:51:23;;;;;;;0.20;0.20;;;10.30;99.90;;;;;;5029179;28;20265;-51
2023/12/25 08:53:49;;;;;;;0.40;0.40;;;10.40;99.90;;;;;;5029156;28;20236;-51
2023/12/25 08:56:26;;;;;;;1.37;0.80;;;10.40;99.90;;;;;;5028998;28;20536;-54
2023/12/25 08:58:52;;;;;;;0.77;0.50;;;10.50;99.90;;;;;;5027451;28;20179;-51
2023/12/25 09:01:18;;;;;;;1.83;0.70;;;10.50;99.90;;;;;;5028075;28;20217;-53
2023/12/25 09:03:44;;;;;;;1.80;0.70;;;10.50;99.90;;;;;;5029763;28;20258;-53
2023/12/25 09:06:09;;;;;;;0.93;0.50;;;10.50;99.90;;;;;;5029261;28;20314;-52
2023/12/25 09:08:35;;;;;;;0.73;0.40;;;10.50;99.90;;;;;;5029193;28;20612;-54
2023/12/25 09:11:00;;;;;;;1.07;0.30;;;10.50;99.90;;;;;;5028806;28;20191;-55
2023/12/25 09:13:26;;;;;;;0.43;0.27;;;10.60;99.90;;;;;;5030280;28;20175;-50
2023/12/25 09:15:51;;;;;;;1.00;0.30;;;10.60;99.90;;;;;;5029473;28;20238;-52
2023/12/25 09:18:17;;;;;;;1.80;0.20;;;10.50;99.90;;;;;;5021819;28;20253;-56
2023/12/25 09:20:43;;;;;;;0.60;0.20;;;10.50;99.90;;;;;;5028789;28;20682;-51
2023/12/25 09:23:08;;;;;;;0.23;0.20;;;10.40;99.90;;;;;;5029575;28;20203;-51
2023/12/25 09:25:34;;;;;;;0.10;0.10;;;10.50;99.90;;;;;;5029698;28;20175;-50
2023/12/25 09:27:59;;;;;;;0.67;0.30;;;10.50;99.90;;;;;;5029253;28;20187;-50
2023/12/25 09:30:25;;;;;;;2.83;0.20;;;10.50;99.90;;;;;;5028887;28;20196;-51
2023/12/25 09:32:50;;;;;;;2.20;0.30;;;10.50;99.90;;;;;;5029600;28;20214;-51
2023/12/25 09:35:18;;;;;;;0.20;0.10;;;10.50;99.90;;;;;;5032521;28;20241;-52
2023/12/25 09:37:43;;;;;;;0.30;0.27;;;10.50;99.90;;;;;;5033451;28;20302;-55
2023/12/25 09:40:09;;;;;;;0.20;0.20;;;10.50;99.90;;;;;;5033280;28;20199;-50
2023/12/25 09:42:35;;;;;;;2.10;1.47;;;10.50;99.90;;;;;;5025236;28;20265;-56
2023/12/25 09:45:01;;;;;;;0.33;0.23;;;10.50;99.90;;;;;;5033239;28;20184;-53
2023/12/25 09:47:27;;;;;;;0.80;0.50;;;10.40;99.90;;;;;;5033628;28;20627;-53
2023/12/25 09:49:55;;;;;;;0.87;0.60;;;10.50;99.90;;;;;;5032378;28;20179;-52
2023/12/25 09:52:22;;;;;;;1.33;0.90;;;10.50;99.90;;;;;;5033276;28;20243;-54
2023/12/25 09:54:47;;;;;;;3.47;2.23;;;10.50;99.90;;;;;;5024953;28;20213;-56
2023/12/25 09:57:14;;;;;;;1.73;1.27;;;10.50;99.90;;;;;;5032690;28;20215;-56
2023/12/25 09:59:42;;;;;;;1.70;0.43;;;10.60;99.90;;;;;;5032652;28;20235;-52
2023/12/25 10:02:09;;;;;;;0.40;0.30;;;10.70;99.90;;;;;;5032590;28;20281;-55
2023/12/25 10:04:37;;;;;;;0.40;0.30;;;10.70;99.90;;;;;;5032838;28;20730;-53
2023/12/25 10:07:03;;;;;;;1.33;0.50;;;10.80;99.90;;;;;;5032956;28;20266;-55
2023/12/25 10:09:33;;;;;;;0.63;0.40;;;10.80;99.90;;;;;;5032689;28;20621;-51
2023/12/25 10:11:58;;;;;;;0.63;0.50;;;10.80;99.90;;;;;;5033362;28;20600;-53
2023/12/25 10:14:24;;;;;;;0.90;0.60;;;10.70;99.90;;;;;;5032862;28;20207;-55
2023/12/25 10:16:50;;;;;;;0.50;0.30;;;10.70;99.90;;;;;;5031531;28;20595;-48
2023/12/25 10:19:18;;;;;;;0.90;0.80;;;10.70;99.90;;;;;;5027584;28;20262;-51
2023/12/25 10:21:44;;;;;;;0.67;0.53;;;10.70;99.90;;;;;;5037746;28;20215;-55
2023/12/25 10:24:16;;;;;;;0.87;0.50;;;10.70;99.90;;;;;;5029582;28;20179;-51
2023/12/25 10:26:45;;;;;;;2.10;0.47;;;10.80;99.90;;;;;;5029670;28;20176;-50
2023/12/25 10:29:11;;;;;;;1.10;0.60;;;11.00;99.90;;;;;;5028814;28;20187;-56
2023/12/25 10:31:38;;;;;;;2.20;0.67;;;11.10;99.90;;;;;;5029300;28;20226;-54
2023/12/25 10:34:04;;;;;;;1.37;0.40;;;11.20;99.90;;;;;;5021503;28;20179;-51
2023/12/25 10:36:31;;;;;;;0.63;0.40;;;11.30;99.90;;;;;;5029723;28;20635;-52
2023/12/25 10:38:57;;;;;;;0.60;0.40;;;11.40;99.90;;;;;;5029103;28;20184;-51
2023/12/25 10:41:27;;;;;;;0.20;0.20;;;11.40;99.90;;;;;;5028558;28;20286;-56
2023/12/25 10:44:00;;;;;;;0.30;0.20;;;11.50;99.90;;;;;;5029261;28;20655;-56
2023/12/25 10:46:34;;;;;;;0.30;0.13;;;11.50;99.90;;;;;;5028568;28;20184;-54
2023/12/25 10:49:01;;;;;;;0.70;0.40;;;11.50;99.90;;;;;;5036552;28;20187;-52
2023/12/25 10:51:31;;;;;;;0.63;0.50;;;11.40;99.90;;;;;;5029149;28;20270;-51
2023/12/25 10:54:02;;;;;;;0.77;0.47;;;11.30;99.90;;;;;;5020571;28;20639;-54
2023/12/25 10:56:31;;;;;;;2.60;1.70;;;11.30;99.90;;;;;;5029512;28;20237;-54
2023/12/25 10:59:03;;;;;;;1.43;0.33;;;11.20;99.90;;;;;;5031303;28;20211;-56
2023/12/25 11:01:30;;;;;;;0.43;0.37;;;11.10;99.90;;;;;;5033335;28;20305;-52
2023/12/25 11:03:57;;;;;;;1.40;0.90;;;11.10;99.90;;;;;;5029030;28;20188;-55
2023/12/25 11:06:22;;;;;;;0.70;0.50;;;11.10;99.90;;;;;;5030060;28;20195;-50
2023/12/25 11:08:48;;;;;;;2.33;0.30;;;11.00;99.90;;;;;;5039012;28;20187;-52
2023/12/25 11:11:14;;;;;;;4.50;1.20;;;11.00;99.90;;;;;;5036471;28;20520;-51
2023/12/25 11:13:41;;;;;;;4.70;1.40;;;11.00;99.90;;;;;;5034775;28;20188;-50
2023/12/25 11:16:08;;;;;;;2.07;1.00;;;11.00;99.90;;;;;;5031719;28;20602;-50
2023/12/25 11:18:37;;;;;;;1.67;1.00;;;11.00;99.90;;;;;;5023521;28;20718;-52
2023/12/25 11:21:19;;;;;;;0.60;0.50;;;11.00;99.90;;;;;;5031355;28;20221;-51
2023/12/25 11:23:47;;;;;;;1.23;0.83;;;11.00;99.90;;;;;;5031596;28;20180;-51
2023/12/25 11:26:12;;;;;;;0.50;0.30;;;11.00;99.90;;;;;;5055372;28;20214;-55
2023/12/25 11:28:42;;;;;;;0.97;0.50;;;11.00;99.90;;;;;;5031431;28;20180;-51
2023/12/25 11:31:08;;;;;;;2.70;0.60;;;11.00;99.90;;;;;;5023423;28;20207;-53
2023/12/25 11:34:18;;;;;;;0.57;0.30;;;11.00;99.90;;;;;;5031325;28;20184;-52
2023/12/25 11:36:45;;;;;;;0.53;0.37;;;10.90;99.90;;;;;;5014834;28;20223;-54
2023/12/25 11:39:11;;;;;;;0.23;0.20;;;11.00;99.90;;;;;;5032835;28;20244;-50
2023/12/25 11:41:37;;;;;;;0.77;0.20;;;11.00;99.90;;;;;;5031207;28;20200;-51
2023/12/25 11:44:06;;;;;;;0.80;0.50;;;10.90;99.90;;;;;;5023468;28;20279;-51
2023/12/25 11:46:34;;;;;;;7.20;3.73;;;10.90;99.90;;;;;;5025535;28;20180;-50
2023/12/25 11:49:00;;;;;;;1.07;0.50;;;10.90;99.90;;;;;;5025294;28;20655;-52
2023/12/25 11:51:29;;;;;;;2.27;0.40;;;11.00;99.90;;;;;;5026185;28;20288;-51
2023/12/25 11:53:59;;;;;;;0.77;0.53;;;11.00;99.90;;;;;;5025349;28;20222;-52
2023/12/25 11:56:28;;;;;;;0.87;0.40;;;11.00;99.90;;;;;;5026357;28;20180;-51
2023/12/25 11:58:54;;;;;;;0.90;0.60;;;11.10;99.90;;;;;;5029140;28;20176;-50
2023/12/25 12:01:19;;;;;;;2.00;1.30;;;11.10;99.90;;;;;;5030401;28;20419;-49
2023/12/25 12:03:47;;;;;;;2.37;0.80;;;11.20;99.90;;;;;;5030564;28;20168;-51
2023/12/25 12:06:14;;;;;;;1.90;1.07;;;11.20;99.90;;;;;;5025934;28;20251;-55
2023/12/25 12:08:40;;;;;;;1.37;1.00;;;11.10;99.90;;;;;;5028443;28;20180;-51
2023/12/25 12:11:06;;;;;;;2.53;1.40;;;11.10;99.90;;;;;;5029829;28;20223;-50
2023/12/25 12:13:33;;;;;;;2.30;1.50;;;11.10;99.90;;;;;;5030501;28;20215;-49
2023/12/25 12:15:59;;;;;;;4.57;1.43;;;11.20;99.90;;;;;;5028967;28;20676;-53
2023/12/25 12:18:25;;;;;;;2.90;1.07;;;11.10;99.90;;;;;;5030347;28;20186;-50
2023/12/25 12:20:51;;;;;;;2.57;1.00;;;11.10;99.90;;;;;;5029774;28;20204;-52
2023/12/25 12:23:17;;;;;;;0.80;0.70;;;11.00;99.90;;;;;;5027058;28;20262;-50
2023/12/25 12:25:42;;;;;;;1.30;0.70;;;11.00;99.90;;;;;;5028883;28;20191;-50
2023/12/25 12:28:08;;;;;;;1.97;0.60;;;11.00;99.90;;;;;;5029882;28;20191;-53
2023/12/25 12:30:36;;;;;;;1.17;0.50;;;10.90;99.90;;;;;;5029556;28;20234;-50
2023/12/25 12:33:03;;;;;;;1.67;0.30;;;10.90;99.90;;;;;;5030057;28;20230;-52
2023/12/25 12:35:29;;;;;;;4.20;2.30;;;10.90;99.90;;;;;;5030233;28;20635;-49
2023/12/25 12:37:55;;;;;;;4.50;1.63;;;11.00;99.90;;;;;;5029981;28;20528;-49
2023/12/25 12:40:20;;;;;;;2.80;1.53;;;11.00;99.90;;;;;;5029346;28;20199;-49
2023/12/25 12:42:46;;;;;;;1.80;1.30;;;11.10;99.90;;;;;;5029551;28;20695;-50